Time;durP1;ratioP1;P1;durP2;ratioP2;P2;SDS_P1;SDS_P2;PMS_P1;PMS_P2;Temp;Humidity;BMP_temperature;BMP_pressure;BME280_temperature;BME280_humidity;BME280_pressure;Samples;Min_cycle;Max_cycle;Signal;HPM_P1;HPM_P2
2023/05/09 00:01:46;;;;;;;8.70;2.60;;;;;;;11.50;37.54;101292.80;105409;1253;60505;-74
2023/05/09 00:04:15;;;;;;;5.50;2.40;;;;;;;11.48;37.55;101292.40;105512;1259;60403;-71
2023/05/09 00:06:43;;;;;;;9.50;2.70;;;;;;;11.45;37.68;101295.42;105287;1262;65946;-69
2023/05/09 00:09:12;;;;;;;8.30;2.60;;;;;;;11.41;37.70;101290.25;105681;1259;60590;-70
2023/05/09 00:11:38;;;;;;;6.40;2.70;;;;;;;11.36;37.72;101290.36;105694;1254;66517;-71
2023/05/09 00:14:06;;;;;;;6.40;2.30;;;;;;;11.33;37.71;101290.62;105510;1253;60473;-70
2023/05/09 00:16:36;;;;;;;7.00;2.40;;;;;;;11.33;37.81;101287.61;105858;1260;60497;-71
2023/05/09 00:19:03;;;;;;;6.10;3.00;;;;;;;11.33;37.78;101287.80;105712;1254;66612;-71
2023/05/09 00:21:31;;;;;;;6.80;2.70;;;;;;;11.32;37.97;101289.29;105484;1261;60740;-71
2023/05/09 00:24:00;;;;;;;5.10;2.70;;;;;;;11.28;38.21;101290.77;105456;1253;66543;-71
2023/05/09 00:26:27;;;;;;;6.50;2.90;;;;;;;11.24;38.15;101291.39;105542;1261;60427;-69
2023/05/09 00:28:54;;;;;;;4.70;2.70;;;;;;;11.21;38.10;101293.58;105610;1253;60364;-70
2023/05/09 00:31:21;;;;;;;9.00;3.10;;;;;;;11.18;38.15;101291.09;106103;1253;66125;-69
2023/05/09 00:33:48;;;;;;;7.40;2.60;;;;;;;11.15;38.22;101291.11;105421;1260;60846;-71
2023/05/09 00:36:16;;;;;;;4.80;2.70;;;;;;;11.13;38.28;101290.73;105346;1257;66588;-70
2023/05/09 00:38:43;;;;;;;6.30;3.00;;;;;;;11.10;38.52;101291.81;105482;1257;60527;-71
2023/05/09 00:41:10;;;;;;;6.80;3.20;;;;;;;11.08;38.66;101289.11;105595;1254;60434;-71
2023/05/09 00:43:37;;;;;;;5.60;3.00;;;;;;;11.05;38.74;101288.84;106173;1257;65332;-72
2023/05/09 00:46:06;;;;;;;5.70;3.10;;;;;;;11.03;38.79;101285.08;105562;1253;60781;-70
2023/05/09 00:48:33;;;;;;;6.80;2.60;;;;;;;11.00;38.92;101285.23;105681;1256;65263;-71
2023/05/09 00:51:01;;;;;;;5.80;3.00;;;;;;;10.98;39.07;101286.82;105303;1255;60565;-70
2023/05/09 00:53:28;;;;;;;5.60;2.80;;;;;;;10.96;39.27;101287.80;105455;1254;60441;-72
2023/05/09 00:55:57;;;;;;;5.40;2.40;;;;;;;10.95;39.37;101286.30;105620;1259;67636;-70
2023/05/09 00:58:24;;;;;;;7.40;2.70;;;;;;;10.94;39.39;101286.55;105586;1253;60844;-71
2023/05/09 01:00:51;;;;;;;7.40;2.70;;;;;;;10.93;39.18;101285.94;105504;1261;66557;-69
2023/05/09 01:03:18;;;;;;;6.00;2.70;;;;;;;10.92;39.05;101283.55;105260;1262;60640;-69
2023/05/09 01:06:11;;;;;;;4.80;2.50;;;;;;;10.93;39.15;101286.45;105651;1260;60397;-71
2023/05/09 01:08:41;;;;;;;5.40;2.60;;;;;;;10.96;39.30;101289.78;105344;1262;65404;-70
2023/05/09 01:11:38;;;;;;;7.10;3.30;;;;;;;10.96;39.35;101290.14;105485;1253;60733;-70
2023/05/09 01:14:31;;;;;;;9.40;3.30;;;;;;;10.93;39.40;101286.45;105659;1262;65541;-70
2023/05/09 01:17:02;;;;;;;6.50;3.20;;;;;;;10.91;39.46;101291.85;105908;1254;60413;-70
2023/05/09 01:19:57;;;;;;;6.30;3.00;;;;;;;10.89;39.53;101287.71;106012;1253;60632;-70
2023/05/09 01:22:30;;;;;;;4.70;2.90;;;;;;;10.87;39.56;101286.61;105443;1260;67916;-71
2023/05/09 01:25:05;;;;;;;5.10;2.90;;;;;;;10.86;39.60;101284.05;105421;1253;60908;-71
2023/05/09 01:27:50;;;;;;;7.80;3.10;;;;;;;10.86;39.52;101281.78;105525;1256;63990;-70
2023/05/09 01:30:22;;;;;;;8.70;3.10;;;;;;;10.84;39.50;101282.95;105531;1254;60453;-71
2023/05/09 01:32:50;;;;;;;6.10;2.80;;;;;;;10.83;39.49;101286.77;105422;1257;60498;-70
2023/05/09 01:35:19;;;;;;;7.80;3.00;;;;;;;10.79;39.47;101288.20;105786;1253;66492;-71
2023/05/09 01:37:50;;;;;;;6.20;3.00;;;;;;;10.77;39.73;101283.77;105437;1259;60849;-71
2023/05/09 01:40:19;;;;;;;5.20;2.90;;;;;;;10.73;39.81;101283.91;105408;1262;66613;-71
2023/05/09 01:42:51;;;;;;;8.30;2.90;;;;;;;10.70;39.88;101285.46;105682;1257;61375;-71
2023/05/09 01:45:18;;;;;;;5.90;2.90;;;;;;;10.68;39.83;101283.86;105434;1253;60480;-71
2023/05/09 01:47:45;;;;;;;6.90;3.10;;;;;;;10.67;40.08;101282.69;105585;1253;67870;-70
2023/05/09 01:50:13;;;;;;;6.00;3.10;;;;;;;10.65;40.17;101281.56;105693;1253;60892;-70
2023/05/09 01:52:40;;;;;;;6.10;3.10;;;;;;;10.62;40.23;101281.42;105380;1261;65459;-70
2023/05/09 01:55:08;;;;;;;9.20;3.20;;;;;;;10.60;40.20;101287.88;105458;1263;60579;-70
2023/05/09 01:57:37;;;;;;;7.00;3.10;;;;;;;10.59;40.34;101288.85;105677;1255;60394;-71
2023/05/09 02:00:06;;;;;;;6.50;3.20;;;;;;;10.57;40.39;101287.55;105694;1259;67654;-71
2023/05/09 02:02:39;;;;;;;5.10;3.00;;;;;;;10.55;40.46;101288.19;106003;1254;60957;-71
2023/05/09 02:05:08;;;;;;;10.60;3.20;;;;;;;10.53;40.48;101288.73;105683;1254;66328;-71
2023/05/09 02:07:35;;;;;;;6.00;2.90;;;;;;;10.51;40.43;101290.09;105495;1257;60636;-73
2023/05/09 02:10:03;;;;;;;4.20;2.80;;;;;;;10.50;40.57;101288.88;105501;1255;60527;-72
2023/05/09 02:12:31;;;;;;;5.10;3.00;;;;;;;10.49;40.67;101286.30;105612;1253;67867;-68
2023/05/09 02:14:58;;;;;;;6.00;3.10;;;;;;;10.46;40.77;101288.42;105935;1253;60866;-70
2023/05/09 02:17:25;;;;;;;6.10;3.00;;;;;;;10.42;41.01;101286.61;105594;1254;65987;-70
2023/05/09 02:19:52;;;;;;;5.00;2.90;;;;;;;10.36;41.19;101287.17;108253;1253;60420;-71
2023/05/09 02:22:19;;;;;;;7.00;3.10;;;;;;;10.30;41.22;101284.23;105890;1259;60509;-74
2023/05/09 02:24:46;;;;;;;5.70;3.10;;;;;;;10.28;41.15;101286.64;106081;1259;67681;-71
2023/05/09 02:27:14;;;;;;;5.30;3.10;;;;;;;10.26;41.43;101285.16;105459;1256;61320;-70
2023/05/09 02:29:45;;;;;;;6.50;3.00;;;;;;;10.22;41.44;101288.17;105558;1254;66227;-70
2023/05/09 02:32:18;;;;;;;6.50;2.60;;;;;;;10.21;41.40;101288.60;105604;1253;60462;-70
2023/05/09 02:34:45;;;;;;;8.00;3.10;;;;;;;10.18;41.55;101285.60;105936;1260;60429;-70
2023/05/09 02:37:12;;;;;;;6.30;3.00;;;;;;;10.15;41.53;101287.41;105550;1259;67542;-71
2023/05/09 02:39:39;;;;;;;5.50;3.10;;;;;;;10.12;41.50;101283.52;105421;1263;60529;-68
2023/05/09 02:42:10;;;;;;;5.30;3.00;;;;;;;10.12;41.57;101284.75;105722;1254;66422;-69
2023/05/09 02:44:38;;;;;;;5.20;2.60;;;;;;;10.11;41.60;101288.87;105501;1261;60526;-69
2023/05/09 02:47:05;;;;;;;5.90;3.00;;;;;;;10.11;41.48;101287.86;105703;1254;60983;-70
2023/05/09 02:49:33;;;;;;;9.30;3.30;;;;;;;10.12;41.39;101290.39;105611;1258;66666;-68
2023/05/09 02:52:01;;;;;;;5.60;3.30;;;;;;;10.16;41.40;101291.05;105851;1253;61185;-70
2023/05/09 02:54:28;;;;;;;8.50;2.80;;;;;;;10.18;41.39;101293.05;105885;1256;66779;-71
2023/05/09 02:56:55;;;;;;;6.00;3.20;;;;;;;10.19;41.24;101293.33;105706;1259;60476;-70
2023/05/09 02:59:22;;;;;;;7.60;3.20;;;;;;;10.22;41.22;101301.08;105246;1259;267173;-70
2023/05/09 03:01:50;;;;;;;4.80;2.90;;;;;;;10.24;41.22;101302.56;105407;1254;66647;-71
2023/05/09 03:04:18;;;;;;;6.50;3.30;;;;;;;10.26;41.24;101301.53;105820;1259;60691;-70
2023/05/09 03:06:45;;;;;;;5.20;3.00;;;;;;;10.29;41.21;101303.80;105714;1262;65454;-69
2023/05/09 03:09:12;;;;;;;5.20;2.90;;;;;;;10.31;41.22;101304.71;105752;1257;60606;-70
2023/05/09 03:11:39;;;;;;;4.50;2.80;;;;;;;10.33;41.13;101307.77;105781;1262;60387;-70
2023/05/09 03:14:11;;;;;;;5.70;2.90;;;;;;;10.36;41.11;101309.71;105581;1254;67978;-71
2023/05/09 03:16:39;;;;;;;5.80;3.00;;;;;;;10.37;41.26;101312.11;105483;1257;60550;-69
2023/05/09 03:19:10;;;;;;;4.00;2.70;;;;;;;10.38;41.29;101313.96;105648;1262;67045;-71
2023/05/09 03:21:38;;;;;;;5.10;3.10;;;;;;;10.40;41.27;101315.27;105553;1257;60448;-70
2023/05/09 03:24:09;;;;;;;6.10;2.90;;;;;;;10.42;41.25;101316.52;105591;1254;60463;-69
2023/05/09 03:26:36;;;;;;;4.80;3.00;;;;;;;10.46;41.16;101319.83;105350;1253;66677;-71
2023/05/09 03:29:03;;;;;;;4.80;2.90;;;;;;;10.50;41.09;101319.90;105441;1260;61021;-70
2023/05/09 03:31:30;;;;;;;7.70;2.90;;;;;;;10.53;41.08;101318.48;105500;1262;66530;-70
2023/05/09 03:33:57;;;;;;;4.50;2.50;;;;;;;10.56;41.04;101323.00;106075;1259;60592;-70
2023/05/09 03:36:25;;;;;;;3.80;2.70;;;;;;;10.59;41.10;101325.27;105619;1259;60660;-70
2023/05/09 03:38:53;;;;;;;4.90;2.70;;;;;;;10.60;41.16;101326.09;105633;1259;67584;-71
2023/05/09 03:41:20;;;;;;;5.30;2.80;;;;;;;10.62;41.04;101328.29;105525;1253;60661;-71
2023/05/09 03:43:47;;;;;;;4.70;3.20;;;;;;;10.65;40.98;101326.67;105538;1258;66400;-71
2023/05/09 03:46:14;;;;;;;5.50;2.90;;;;;;;10.70;40.92;101327.42;105747;1260;61199;-69
2023/05/09 03:48:43;;;;;;;4.30;2.90;;;;;;;10.73;40.93;101330.55;105891;1255;60481;-70
2023/05/09 03:51:10;;;;;;;7.30;2.90;;;;;;;10.75;40.58;101332.89;105549;1262;67812;-71
2023/05/09 03:53:38;;;;;;;4.50;2.90;;;;;;;10.76;40.29;101333.36;105692;1253;60935;-71
2023/05/09 03:56:06;;;;;;;6.40;3.10;;;;;;;10.79;40.34;101335.08;105758;1256;66342;-70
2023/05/09 03:58:37;;;;;;;8.90;3.00;;;;;;;10.85;40.33;101335.41;106036;1256;60551;-71
2023/05/09 04:01:04;;;;;;;12.10;3.00;;;;;;;10.89;40.44;101335.82;105574;1258;60547;-71
2023/05/09 04:03:33;;;;;;;5.70;3.10;;;;;;;10.95;40.49;101339.39;105777;1261;67398;-72
2023/05/09 04:06:01;;;;;;;4.80;3.00;;;;;;;10.98;40.42;101335.07;105659;1259;60767;-70
2023/05/09 04:08:34;;;;;;;4.30;2.90;;;;;;;11.02;40.42;101334.63;105837;1259;66395;-70
